WARNING - Please set your current conddition source. Defaulted to metar

Welkom op de weersite van Veghel e.o.

Vanaf 1 juni t/m 31 augustus is de meteorologische zomer.
En dat laat ons ook goed merken

Nu maar hopen dat dit aanhoud

Maar dan hebben we dit vast gehad


Webcam Veghel  Webcam Veghel


Onweer radar Meer informatie blitzortung!


Regen radar Meer informatie rain snow radar


U vindt ons ook hier:

Het Weer Aktueel

European Weather Network

Weather Underground

Benelux Weer Netwerk

AWEKAS


Het weer levert geen direct gevaar op.    Er zijn geen waarschuwingen afgegeven.

METAR rapporten vliegvelden

   
EHAM - Amsterdam
Gewijzigd: 25-06-2018 03:25
Grotendeels bewolkt  
Grotendeels bewolkt  
   Wind: NNW 11.1 km/h
Wind: NNW 11.1 km/h
Temperatuur: 14°C
Dauwpunt: 12°C
Vochtigheid: 88%
Barometer: 1024 hPa
Bewolking: Mostly Cloudy
Zicht: meer dan 10 km
Bewolking: Grotendeels bewolkt 1100 ft
EHAM 250125Z 34006KT 300V010 9999 BKN011 14/12 Q1024 BECMG BKN008
EHEH - Eindhoven
Gewijzigd: 25-06-2018 03:40
Bewolking  
Bewolking  
   Wind: NW 7.4 km/h
Wind: NW 7.4 km/h
Temperatuur: 14°C
Dauwpunt: 12°C
Vochtigheid: 88%
Barometer: 1023 hPa
Bewolking: Overcast
Zicht: meer dan 10 km
Bewolking: Licht bewolkt 1300 ft,
Grotendeels bewolkt 1500 ft,
Bewolking 1900 ft
EHEH 250140Z AUTO 31004KT 270V010 9999 FEW013 BKN015 OVC019 14/12 Q1023 WHT
EHGR - Gilze/Rijen
Gewijzigd: 25-06-2018 03:25
Bewolking  
Bewolking  
   Wind: NNW 11.1 km/h
Wind: NNW 11.1 km/h
Temperatuur: 15°C
Dauwpunt: 12°C
Vochtigheid: 82%
Barometer: 1024 hPa
Bewolking: Overcast
Zicht: meer dan 10 km
Bewolking: Gedeeltelijk bewolkt 900 ft,
Bewolking 1000 ft
EHGR 250125Z AUTO 34006KT 280V030 9999 SCT009 OVC010 15/12 Q1024 GRN
EHBK - Maastricht
Gewijzigd: 25-06-2018 03:25
Bewolking  
Bewolking  
   Wind: Noorden 7.4 km/h
Wind: Noorden 7.4 km/h
Temperatuur: 14°C
Dauwpunt: 12°C
Vochtigheid: 88%
Barometer: 1023 hPa
Bewolking: Overcast
Zicht: meer dan 10 km
Bewolking: Gedeeltelijk bewolkt 900 ft,
Grotendeels bewolkt 1000 ft,
Bewolking 1400 ft
EHBK 250125Z AUTO 36004KT 330V050 9999 SCT009 BKN010 OVC014 14/12 Q1023
EHVK - Volkel
Gewijzigd: 25-06-2018 03:45
Grotendeels bewolkt  
Grotendeels bewolkt  
   Wind: NNW 5.6 km/h
Wind: NNW 5.6 km/h
Temperatuur: 14°C
Dauwpunt: 13°C
Vochtigheid: 94%
Barometer: 1023 hPa
Bewolking: Mostly Cloudy
Zicht: meer dan 10 km
Bewolking: Licht bewolkt 400 ft,
Grotendeels bewolkt 500 ft,
Grotendeels bewolkt 700 ft
EHVK 250145Z AUTO 33003KT 290V020 9999 FEW004 BKN005 BKN007 14/13 Q1023 YLO
EHFS - Vlissingen
Gewijzigd: 25-06-2018 03:25
Bewolking  
Bewolking  
   Wind: Noorden 11.1 km/h
Wind: Noorden 11.1 km/h
Temperatuur: 15°C
Dauwpunt: 12°C
Vochtigheid: 82%
Barometer: 1024 hPa
Bewolking: Overcast
Zicht: meer dan 10 km
Bewolking: Bewolking 1100 ft
EHFS 250125Z AUTO 36006KT 320V040 9999 OVC011/// 15/12 Q1024 W///H///

Script ontwikkeld door  Saratoga-weather.org Aangepast voor de template door  Weerstation Leuven

Apparatuur in gebruik:

Weerstation
Davis VP2

Weerprogramma
WeatherLink

Weercomputer
Sponsor

Webleverancier
My provider

Davis VP2

WeatherLink

Sponsor

My provider